Etusivu
METAR-TAF:

METAR-TAF

Lentoasemat :

Comanche County-City Airport

Comanche, Texas, Yhdysvallat

Leveyspiiri: 31-55N, Pituuspiiri: 098-36-01W, korkeus merenpinnasta: 423 m

Tämänhetkinen sää

Tämä raportti tehtiin 14 minuuttia sitten, kello 13.35 UTC
Tuuli 16 kn etelästä/lounaasta puuskistuen 21 kn:hen
Lämpötila 26°C
Kosteus 74%
Ilmanpaine 1017 hPa
Hajanaisia pilviä 300 ft:n korkeudessa
Hajanaisia pilviä 700 ft:n korkeudessa

METAR: KMKN 181335Z AUTO 20016G21KT SCT003 SCT007 26/21 A3002 RMK AO2 T02550211 PWINO

Aika: 08:49 (13:49 UTC)


TAF: puuttuu

Säähavainnot ja -ennusteet yli 4000 lentoasemalta (METAR- ja TAF-raportit).

Käytössä olevat sääasemat on merkitty karttaan keltaisilla ja punaisilla pisteillä.

Aseta hiiri pisteen päälle nähdäksesi sääaseman nimen.

Klikkaa sitten nähdäksesi säähavainnot ja -ennusteet.

Kartan vaihtaminen: klikkaa mustalla rastilla varustettuja vihreitä pisteitä, niin voit zoomata sisään; viivalla varustettua vihreää pistettä, niin voit zoomata ulos tai vihreitä nuolia, niin pääset viereisille kartoille.


METAR-TAF: